createdAt,value
2023-03-19T00:01:13.031Z,100978.25
2023-03-19T00:03:43.582Z,100977.94
2023-03-19T00:06:12.684Z,100984.44
2023-03-19T00:08:41.947Z,100983.03
2023-03-19T00:11:13.209Z,100989.13
2023-03-19T00:13:42.433Z,100986.38
2023-03-19T00:16:11.497Z,100991.28
2023-03-19T00:18:41.939Z,100994.34
2023-03-19T00:21:11.124Z,100991.00
2023-03-19T00:23:40.155Z,100986.06
2023-03-19T00:26:09.691Z,100991.66
2023-03-19T00:28:40.091Z,100990.22
2023-03-19T00:31:11.523Z,100990.66
2023-03-19T00:33:42.711Z,100990.66
2023-03-19T00:36:12.861Z,100985.91
2023-03-19T00:38:42.467Z,100989.88
2023-03-19T00:41:12.309Z,100986.50
2023-03-19T00:43:42.066Z,100990.66
2023-03-19T00:46:11.417Z,100991.03
2023-03-19T00:48:42.182Z,100998.56
2023-03-19T00:51:12.078Z,100994.94
2023-03-19T00:53:42.722Z,100994.47
2023-03-19T00:56:13.862Z,101001.03
2023-03-19T00:58:43.190Z,100999.28
2023-03-19T01:01:15.667Z,100999.97
2023-03-19T01:03:47.378Z,101006.66
2023-03-19T01:06:16.959Z,101013.09
2023-03-19T01:08:45.979Z,101009.06
2023-03-19T01:11:17.269Z,101013.81
2023-03-19T01:13:46.609Z,101012.22
2023-03-19T01:16:15.900Z,101013.22
2023-03-19T01:18:46.536Z,101007.59
2023-03-19T01:21:15.631Z,101017.25
2023-03-19T01:23:48.626Z,101009.75
2023-03-19T01:26:18.332Z,101008.09
2023-03-19T01:28:48.542Z,101003.13
2023-03-19T01:31:18.180Z,101004.78
2023-03-19T01:34:21.538Z,101005.75
2023-03-19T01:36:55.202Z,101008.13
2023-03-19T01:39:30.792Z,101006.47
2023-03-19T01:42:03.308Z,100998.63
2023-03-19T01:44:58.600Z,101002.19
2023-03-19T01:47:46.728Z,100999.22
2023-03-19T01:50:31.397Z,100997.88
2023-03-19T01:53:23.945Z,100996.25
2023-03-19T01:56:04.138Z,101000.41
2023-03-19T01:58:42.811Z,101001.59
2023-03-19T02:01:43.222Z,100985.31
2023-03-19T02:04:19.895Z,100988.50
2023-03-19T02:06:50.428Z,100982.88
2023-03-19T02:09:20.329Z,100987.09
2023-03-19T02:11:49.436Z,100984.31
2023-03-19T02:14:18.612Z,100980.75
2023-03-19T02:16:47.706Z,100989.31
2023-03-19T02:19:23.452Z,100987.78
2023-03-19T02:21:56.571Z,100982.56
2023-03-19T02:24:32.613Z,100989.91
2023-03-19T02:27:10.219Z,100989.47
2023-03-19T02:29:42.764Z,100991.59
2023-03-19T02:32:12.841Z,100997.41
2023-03-19T02:34:43.046Z,100992.50
2023-03-19T02:37:17.473Z,100995.91
2023-03-19T02:39:55.707Z,100996.28
2023-03-19T02:42:28.731Z,100991.63
2023-03-19T02:44:59.363Z,100999.13
2023-03-19T02:47:28.809Z,101000.03
2023-03-19T02:49:57.873Z,101001.78
2023-03-19T02:52:28.039Z,100996.53
2023-03-19T02:54:57.071Z,100992.31
2023-03-19T02:57:28.257Z,100993.78
2023-03-19T02:59:57.286Z,100993.28
2023-03-19T03:02:27.251Z,100989.44
2023-03-19T03:04:56.327Z,100996.00
2023-03-19T03:07:27.553Z,100991.81
2023-03-19T03:09:56.728Z,100993.50
2023-03-19T03:12:27.162Z,100994.56
2023-03-19T03:14:56.578Z,100991.31
2023-03-19T03:17:25.644Z,101002.59
2023-03-19T03:19:55.017Z,100995.28
2023-03-19T03:22:24.236Z,100985.28
2023-03-19T03:24:53.285Z,100991.38
2023-03-19T03:27:22.692Z,100999.50
2023-03-19T03:29:53.157Z,100999.72
2023-03-19T03:32:22.330Z,100997.44
2023-03-19T03:34:51.656Z,101002.44
2023-03-19T03:37:20.725Z,100999.00
2023-03-19T03:39:49.772Z,100999.63
2023-03-19T03:42:20.052Z,100998.28
2023-03-19T03:44:49.207Z,101001.25
2023-03-19T03:47:20.002Z,100991.72
2023-03-19T03:49:49.092Z,100998.94
2023-03-19T03:52:18.507Z,100993.53
2023-03-19T03:54:47.652Z,100990.97
2023-03-19T03:57:16.784Z,100987.81
2023-03-19T03:59:45.980Z,100990.72
2023-03-19T04:02:15.401Z,100984.25
2023-03-19T04:04:47.499Z,100990.72
2023-03-19T04:07:16.724Z,100988.03
2023-03-19T04:09:51.332Z,100995.53
2023-03-19T04:12:20.953Z,100991.34
2023-03-19T04:14:50.275Z,101005.38
2023-03-19T04:17:19.660Z,100996.09
2023-03-19T04:19:50.226Z,100991.47
2023-03-19T04:22:19.493Z,101001.00
2023-03-19T04:24:48.614Z,100992.91
2023-03-19T04:27:17.780Z,100993.53
2023-03-19T04:29:47.759Z,101001.50
2023-03-19T04:32:19.301Z,101001.78
2023-03-19T04:34:50.144Z,100999.06
2023-03-19T04:37:19.285Z,101000.75
2023-03-19T04:39:51.913Z,101002.66
2023-03-19T04:42:21.110Z,101002.50
2023-03-19T04:45:07.815Z,101001.16
2023-03-19T04:47:37.412Z,100996.41
2023-03-19T04:50:09.666Z,100995.38
2023-03-19T04:52:39.267Z,101000.59
2023-03-19T04:55:09.668Z,100995.03
2023-03-19T04:57:50.802Z,100991.59
2023-03-19T05:00:22.911Z,101001.00
2023-03-19T05:02:52.199Z,101000.44
2023-03-19T05:05:22.713Z,101003.03
2023-03-19T05:07:51.837Z,101000.69
2023-03-19T05:10:21.028Z,100993.94
2023-03-19T05:12:50.412Z,101003.06
2023-03-19T05:15:20.088Z,101006.63
2023-03-19T05:17:59.655Z,101012.13
2023-03-19T05:20:42.470Z,101012.03
2023-03-19T05:23:19.545Z,101004.41
2023-03-19T05:25:58.876Z,101015.34
2023-03-19T05:28:47.916Z,101007.75
2023-03-19T05:31:20.946Z,101011.19
2023-03-19T05:33:53.450Z,101008.47
2023-03-19T05:36:25.059Z,101012.19
2023-03-19T05:39:00.245Z,101004.53
2023-03-19T05:41:35.664Z,101005.84
2023-03-19T05:44:07.812Z,101006.19
2023-03-19T05:46:57.228Z,101005.69
2023-03-19T05:49:29.034Z,101010.50
2023-03-19T05:51:59.445Z,101004.41
2023-03-19T05:54:28.660Z,101006.31
2023-03-19T05:57:05.468Z,101001.19
2023-03-19T05:59:44.426Z,101002.97
2023-03-19T06:02:43.271Z,101005.97
2023-03-19T06:05:27.344Z,101011.00
2023-03-19T06:08:02.255Z,101011.59
2023-03-19T06:10:54.668Z,101003.59
2023-03-19T06:13:24.268Z,101006.72
2023-03-19T06:15:59.910Z,101011.47
2023-03-19T06:18:58.488Z,101011.22
2023-03-19T06:21:29.652Z,101020.03
2023-03-19T06:24:03.115Z,101026.56
2023-03-19T06:26:37.276Z,101021.72
2023-03-19T06:29:12.736Z,101027.75
2023-03-19T06:31:43.356Z,101028.84
2023-03-19T06:34:20.810Z,101027.78
2023-03-19T06:36:50.490Z,101034.22
2023-03-19T06:39:21.956Z,101036.59
2023-03-19T06:41:51.317Z,101037.44
2023-03-19T06:44:25.058Z,101036.09
2023-03-19T06:46:54.052Z,101044.34
2023-03-19T06:49:23.951Z,101039.19
2023-03-19T06:51:53.025Z,101042.31
2023-03-19T06:54:23.623Z,101043.59
2023-03-19T06:56:52.669Z,101045.50
2023-03-19T06:59:22.065Z,101047.53
2023-03-19T07:01:52.862Z,101053.47
2023-03-19T07:04:22.624Z,101049.06
2023-03-19T07:06:52.708Z,101054.19
2023-03-19T07:09:24.063Z,101060.50
2023-03-19T07:11:54.276Z,101056.34
2023-03-19T07:14:25.172Z,101063.22
2023-03-19T07:16:55.252Z,101066.69
2023-03-19T07:19:25.269Z,101064.00
2023-03-19T07:21:55.379Z,101060.44
2023-03-19T07:24:26.788Z,101063.13
2023-03-19T07:26:57.079Z,101063.69
2023-03-19T07:29:26.646Z,101060.53
2023-03-19T07:31:56.708Z,101059.25
2023-03-19T07:34:26.259Z,101053.16
2023-03-19T07:36:55.282Z,101055.19
2023-03-19T07:39:26.603Z,101058.34
2023-03-19T07:41:55.910Z,101056.44
2023-03-19T07:44:26.109Z,101066.41
2023-03-19T07:46:55.190Z,101073.59
2023-03-19T07:49:25.252Z,101069.06
2023-03-19T07:51:54.292Z,101078.53
2023-03-19T07:54:24.929Z,101071.09
2023-03-19T07:56:54.010Z,101084.38
2023-03-19T07:59:23.224Z,101083.63
2023-03-19T08:01:52.371Z,101079.19
2023-03-19T08:04:21.603Z,101077.94
2023-03-19T08:06:50.657Z,101081.59
2023-03-19T08:09:19.704Z,101086.88
2023-03-19T08:11:50.482Z,101081.88
2023-03-19T08:14:22.443Z,101078.28
2023-03-19T08:16:51.739Z,101074.81
2023-03-19T08:19:21.005Z,101079.28
2023-03-19T08:21:50.060Z,101078.56
2023-03-19T08:24:19.732Z,101082.75
2023-03-19T08:26:50.799Z,101089.41
2023-03-19T08:29:19.982Z,101093.50
2023-03-19T08:31:49.004Z,101093.41
2023-03-19T08:34:18.067Z,101090.31
2023-03-19T08:36:47.278Z,101093.97
2023-03-19T08:39:16.424Z,101096.56
2023-03-19T08:41:45.508Z,101105.34
2023-03-19T08:44:15.933Z,101099.09
2023-03-19T08:46:45.290Z,101101.66
2023-03-19T08:49:14.338Z,101096.84
2023-03-19T08:51:43.500Z,101100.88
2023-03-19T08:54:13.707Z,101101.56
2023-03-19T08:56:42.750Z,101101.75
2023-03-19T08:59:11.771Z,101092.06
2023-03-19T09:01:42.190Z,101101.31
2023-03-19T09:04:11.328Z,101108.50
2023-03-19T09:06:40.929Z,101104.13
2023-03-19T09:09:10.131Z,101103.06
2023-03-19T09:11:39.332Z,101112.94
2023-03-19T09:14:08.402Z,101116.09
2023-03-19T09:16:37.517Z,101110.97
2023-03-19T09:19:08.482Z,101117.34
2023-03-19T09:21:38.008Z,101127.56
2023-03-19T09:24:07.795Z,101119.09
2023-03-19T09:26:37.016Z,101111.56
2023-03-19T09:29:06.116Z,101112.69
2023-03-19T09:31:36.257Z,101115.31
2023-03-19T09:34:08.810Z,101116.72
2023-03-19T09:36:38.395Z,101112.25
2023-03-19T09:39:08.417Z,101116.72
2023-03-19T09:41:45.445Z,101109.09
2023-03-19T09:44:17.445Z,101112.78
2023-03-19T09:46:53.262Z,101119.06
2023-03-19T09:49:27.511Z,101121.06
2023-03-19T09:52:00.179Z,101117.53
2023-03-19T09:54:33.392Z,101120.84
2023-03-19T09:57:03.171Z,101128.50
2023-03-19T09:59:32.334Z,101137.06
2023-03-19T10:02:25.336Z,101137.69
2023-03-19T10:05:09.938Z,101133.44
2023-03-19T10:07:59.637Z,101140.25
2023-03-19T10:10:50.206Z,101144.53
2023-03-19T10:13:30.823Z,101133.84
2023-03-19T10:16:02.479Z,101138.28
2023-03-19T10:18:35.861Z,101141.59
2023-03-19T10:21:12.506Z,101141.31
2023-03-19T10:23:46.652Z,101135.28
2023-03-19T10:26:18.718Z,101134.16
2023-03-19T10:28:57.970Z,101139.91
2023-03-19T10:31:31.084Z,101139.81
2023-03-19T10:34:35.832Z,101136.97
2023-03-19T10:37:14.736Z,101139.25
2023-03-19T10:39:45.364Z,101136.28
2023-03-19T10:42:39.738Z,101136.13
2023-03-19T10:45:22.047Z,101140.25
2023-03-19T10:47:52.899Z,101135.31
2023-03-19T10:50:28.667Z,101134.94
2023-03-19T10:53:06.792Z,101135.25
2023-03-19T10:55:36.419Z,101141.34
2023-03-19T10:58:08.180Z,101142.06
2023-03-19T11:00:37.348Z,101150.56
2023-03-19T11:03:27.480Z,101144.78
2023-03-19T11:06:06.867Z,101151.84
2023-03-19T11:08:39.007Z,101138.78
2023-03-19T11:11:08.107Z,101147.66
2023-03-19T11:13:37.373Z,101141.69
2023-03-19T11:16:06.819Z,101145.09
2023-03-19T11:18:40.303Z,101150.22
2023-03-19T11:21:22.465Z,101146.72
2023-03-19T11:24:00.279Z,101141.75
2023-03-19T11:26:29.454Z,101140.94
2023-03-19T11:29:05.029Z,101149.41
2023-03-19T11:31:40.255Z,101144.88
2023-03-19T11:34:30.456Z,101135.69
2023-03-19T11:37:10.233Z,101134.44
2023-03-19T11:39:54.064Z,101136.13
2023-03-19T11:42:46.351Z,101133.81
2023-03-19T11:45:23.412Z,101135.94
2023-03-19T11:48:03.694Z,101131.50
2023-03-19T11:50:39.909Z,101127.34
2023-03-19T11:53:19.271Z,101138.13
2023-03-19T11:55:58.459Z,101137.81
2023-03-19T11:58:53.851Z,101128.47
2023-03-19T12:01:45.469Z,101130.34
2023-03-19T12:04:30.816Z,101127.41
2023-03-19T12:07:11.392Z,101131.31
2023-03-19T12:09:49.805Z,101130.47
2023-03-19T12:12:26.825Z,101127.34
2023-03-19T12:15:09.673Z,101124.47
2023-03-19T12:17:49.782Z,101132.16
2023-03-19T12:20:34.152Z,101133.00
2023-03-19T12:23:13.264Z,101135.00
2023-03-19T12:26:00.188Z,101128.25
2023-03-19T12:28:33.986Z,101125.84
2023-03-19T12:31:29.338Z,101126.81
2023-03-19T12:34:12.637Z,101124.84
2023-03-19T12:36:49.732Z,101115.09
2023-03-19T12:39:23.528Z,101121.19
2023-03-19T12:41:56.176Z,101114.88
2023-03-19T12:44:31.957Z,101117.53
2023-03-19T12:47:06.054Z,101118.16
2023-03-19T12:49:39.181Z,101119.00
2023-03-19T12:52:19.825Z,101125.16
2023-03-19T12:54:56.386Z,101120.22
2023-03-19T12:57:33.240Z,101126.63
2023-03-19T13:00:10.581Z,101120.09
2023-03-19T13:02:45.329Z,101125.19
2023-03-19T13:05:26.053Z,101133.56
2023-03-19T13:08:03.543Z,101126.34
2023-03-19T13:10:33.435Z,101127.28
2023-03-19T13:13:07.427Z,101126.31
2023-03-19T13:15:42.346Z,101126.97
2023-03-19T13:18:25.953Z,101122.22
2023-03-19T13:21:11.702Z,101127.28
2023-03-19T13:23:44.001Z,101128.63
2023-03-19T13:26:14.715Z,101127.53
2023-03-19T13:29:01.521Z,101125.50
2023-03-19T13:31:36.940Z,101121.66
2023-03-19T13:34:08.796Z,101125.94
2023-03-19T13:36:40.247Z,101122.81
2023-03-19T13:39:17.024Z,101125.22
2023-03-19T13:42:12.725Z,101120.84
2023-03-19T13:44:44.026Z,101124.41
2023-03-19T13:47:40.655Z,101119.13
2023-03-19T13:50:27.302Z,101116.38
2023-03-19T13:53:21.394Z,101118.63
2023-03-19T13:55:54.989Z,101113.69
2023-03-19T13:58:44.651Z,101107.28
2023-03-19T14:01:33.460Z,101106.31
2023-03-19T14:04:05.871Z,101103.97
2023-03-19T14:06:39.763Z,101111.94
2023-03-19T14:09:31.222Z,101097.69
2023-03-19T14:12:21.918Z,101101.03
2023-03-19T14:14:53.526Z,101108.75
2023-03-19T14:17:26.445Z,101126.75
2023-03-19T14:19:59.280Z,101124.41
2023-03-19T14:22:36.756Z,101120.47
2023-03-19T14:25:17.693Z,101130.28
2023-03-19T14:27:49.466Z,101124.47
2023-03-19T14:30:42.225Z,101131.13
2023-03-19T14:33:21.074Z,101126.91
2023-03-19T14:35:52.119Z,101129.06
2023-03-19T14:38:33.041Z,101121.72
2023-03-19T14:41:03.875Z,101125.03
2023-03-19T14:44:02.053Z,101123.94
2023-03-19T14:46:45.116Z,101119.25
2023-03-19T14:49:50.945Z,101119.13
2023-03-19T14:52:24.323Z,101123.22
2023-03-19T14:54:57.082Z,101127.53
2023-03-19T14:57:29.808Z,101116.88
2023-03-19T14:59:58.872Z,101125.06
2023-03-19T15:02:40.548Z,101122.03
2023-03-19T15:05:15.381Z,101120.75
2023-03-19T15:07:48.802Z,101123.06
2023-03-19T15:10:20.694Z,101123.75
2023-03-19T15:13:17.397Z,101123.91
2023-03-19T15:16:11.321Z,101122.75
2023-03-19T15:18:40.831Z,101129.72
2023-03-19T15:21:10.196Z,101126.59
2023-03-19T15:23:42.631Z,101129.97
2023-03-19T15:26:12.374Z,101122.91
2023-03-19T15:28:50.397Z,101139.28
2023-03-19T15:31:31.950Z,101142.16
2023-03-19T15:34:20.742Z,101138.09
2023-03-19T15:36:54.525Z,101147.91
2023-03-19T15:39:29.421Z,101144.31
2023-03-19T15:42:01.942Z,101148.38
2023-03-19T15:44:36.383Z,101150.75
2023-03-19T15:47:11.556Z,101158.44
2023-03-19T15:49:44.851Z,101151.50
2023-03-19T15:52:18.792Z,101153.91
2023-03-19T15:54:49.579Z,101155.19
2023-03-19T15:57:19.783Z,101157.00
2023-03-19T15:59:53.104Z,101161.22
2023-03-19T16:02:29.326Z,101165.34
2023-03-19T16:05:24.902Z,101165.66
2023-03-19T16:07:56.515Z,101165.47
2023-03-19T16:10:40.275Z,101165.84
2023-03-19T16:13:29.594Z,101171.13
2023-03-19T16:16:06.044Z,101175.78
2023-03-19T16:18:45.533Z,101174.44
2023-03-19T16:21:18.161Z,101178.31
2023-03-19T16:23:52.406Z,101178.31
2023-03-19T16:26:25.841Z,101178.41
2023-03-19T16:29:18.667Z,101180.84
2023-03-19T16:31:51.812Z,101179.25
2023-03-19T16:34:42.161Z,101187.06
2023-03-19T16:37:35.206Z,101185.19
2023-03-19T16:40:31.272Z,101184.03
2023-03-19T16:43:08.328Z,101192.72
2023-03-19T16:45:37.803Z,101198.81
2023-03-19T16:48:07.058Z,101197.41
2023-03-19T16:50:38.554Z,101197.72
2023-03-19T16:53:20.068Z,101206.34
2023-03-19T16:55:49.600Z,101211.66
2023-03-19T16:58:28.167Z,101207.66
2023-03-19T17:00:57.402Z,101210.28
2023-03-19T17:03:26.668Z,101211.69
2023-03-19T17:05:55.856Z,101209.19
2023-03-19T17:08:26.223Z,101219.44
2023-03-19T17:10:56.250Z,101225.69
2023-03-19T17:13:29.971Z,101224.47
2023-03-19T17:16:02.344Z,101227.34
2023-03-19T17:18:35.035Z,101232.47
2023-03-19T17:21:09.671Z,101224.72
2023-03-19T17:23:38.943Z,101227.31
2023-03-19T17:26:16.493Z,101230.88
2023-03-19T17:28:47.694Z,101230.84
2023-03-19T17:31:26.506Z,101233.31
2023-03-19T17:34:01.766Z,101244.13
2023-03-19T17:36:31.307Z,101242.28
2023-03-19T17:39:00.538Z,101242.94
2023-03-19T17:41:35.557Z,101240.16
2023-03-19T17:44:06.887Z,101252.31
2023-03-19T17:46:40.682Z,101253.09
2023-03-19T17:49:19.911Z,101258.16
2023-03-19T17:51:49.067Z,101253.69
2023-03-19T17:54:18.705Z,101257.34
2023-03-19T17:56:47.962Z,101254.28
2023-03-19T17:59:18.372Z,101258.13
2023-03-19T18:01:48.072Z,101250.88
2023-03-19T18:04:19.311Z,101260.50
2023-03-19T18:06:51.633Z,101260.78
2023-03-19T18:09:22.436Z,101256.78
2023-03-19T18:11:52.285Z,101251.31
2023-03-19T18:14:23.055Z,101263.13
2023-03-19T18:16:52.620Z,101262.81
2023-03-19T18:19:27.187Z,101267.94
2023-03-19T18:21:59.167Z,101269.63
2023-03-19T18:24:28.416Z,101269.88
2023-03-19T18:26:57.748Z,101276.44
2023-03-19T18:29:28.546Z,101282.28
2023-03-19T18:32:03.871Z,101279.91
2023-03-19T18:34:33.476Z,101276.69
2023-03-19T18:37:02.617Z,101282.91
2023-03-19T18:39:36.375Z,101283.13
2023-03-19T18:42:05.869Z,101286.84
2023-03-19T18:44:37.307Z,101282.44
2023-03-19T18:47:06.742Z,101286.72
2023-03-19T18:49:36.505Z,101286.16
2023-03-19T18:52:05.867Z,101296.38
2023-03-19T18:54:35.112Z,101297.69
2023-03-19T18:57:04.445Z,101297.81
2023-03-19T18:59:36.574Z,101308.09
2023-03-19T19:02:29.753Z,101301.63
2023-03-19T19:04:59.159Z,101314.38
2023-03-19T19:07:28.341Z,101314.63
2023-03-19T19:09:57.629Z,101323.69
2023-03-19T19:12:27.684Z,101318.19
2023-03-19T19:14:59.629Z,101323.91
2023-03-19T19:17:29.572Z,101336.19
2023-03-19T19:19:58.835Z,101324.16
2023-03-19T19:22:29.754Z,101331.91
2023-03-19T19:24:58.810Z,101326.28
2023-03-19T19:27:28.074Z,101323.53
2023-03-19T19:30:00.793Z,101336.88
2023-03-19T19:32:32.265Z,101338.66
2023-03-19T19:35:02.081Z,101331.63
2023-03-19T19:37:31.225Z,101335.84
2023-03-19T19:40:00.488Z,101343.22
2023-03-19T19:42:30.482Z,101338.31
2023-03-19T19:45:03.131Z,101351.53
2023-03-19T19:47:34.695Z,101344.91
2023-03-19T19:50:03.909Z,101356.78
2023-03-19T19:52:33.154Z,101352.56
2023-03-19T19:55:02.269Z,101357.81
2023-03-19T19:57:31.431Z,101368.41
2023-03-19T20:00:01.913Z,101375.88
2023-03-19T20:02:31.475Z,101372.88
2023-03-19T20:05:01.068Z,101379.84
2023-03-19T20:07:30.531Z,101375.28
2023-03-19T20:09:59.675Z,101379.28
2023-03-19T20:12:34.051Z,101389.31
2023-03-19T20:15:04.725Z,101374.53
2023-03-19T20:17:33.877Z,101383.13
2023-03-19T20:20:03.442Z,101385.75
2023-03-19T20:22:33.489Z,101388.47
2023-03-19T20:25:04.208Z,101390.06
2023-03-19T20:27:34.539Z,101389.28
2023-03-19T20:30:06.091Z,101391.84
2023-03-19T20:32:37.012Z,101402.34
2023-03-19T20:35:15.905Z,101402.97
2023-03-19T20:37:45.040Z,101405.06
2023-03-19T20:40:15.331Z,101413.97
2023-03-19T20:42:47.121Z,101416.59
2023-03-19T20:45:20.803Z,101417.53
2023-03-19T20:47:52.686Z,101417.66
2023-03-19T20:50:24.794Z,101424.91
2023-03-19T20:52:55.339Z,101428.13
2023-03-19T20:55:27.787Z,101424.38
2023-03-19T20:57:58.268Z,101427.41
2023-03-19T21:00:30.853Z,101424.28
2023-03-19T21:03:01.837Z,101431.19
2023-03-19T21:05:36.421Z,101426.47
2023-03-19T21:08:07.289Z,101436.09
2023-03-19T21:10:39.651Z,101449.50
2023-03-19T21:13:13.325Z,101439.75
2023-03-19T21:15:43.996Z,101447.06
2023-03-19T21:18:13.663Z,101441.44
2023-03-19T21:20:45.234Z,101447.19
2023-03-19T21:23:19.687Z,101441.84
2023-03-19T21:25:49.193Z,101447.59
2023-03-19T21:28:24.811Z,101452.59
2023-03-19T21:30:56.225Z,101452.94
2023-03-19T21:33:26.948Z,101454.94
2023-03-19T21:35:57.491Z,101453.00
2023-03-19T21:38:27.256Z,101452.19
2023-03-19T21:40:59.196Z,101455.03
2023-03-19T21:43:33.999Z,101449.19
2023-03-19T21:46:22.890Z,101454.94
2023-03-19T21:48:53.623Z,101453.84
2023-03-19T21:51:23.487Z,101445.72
2023-03-19T21:53:52.990Z,101452.41
2023-03-19T21:56:24.474Z,101446.25
2023-03-19T21:58:54.618Z,101445.41
2023-03-19T22:01:26.131Z,101445.63
2023-03-19T22:03:56.432Z,101448.03
2023-03-19T22:06:26.233Z,101446.13
2023-03-19T22:08:55.436Z,101439.00
2023-03-19T22:11:27.996Z,101440.91
2023-03-19T22:14:04.045Z,101442.47
2023-03-19T22:16:34.949Z,101435.25
2023-03-19T22:19:04.330Z,101438.81
2023-03-19T22:21:35.353Z,101441.09
2023-03-19T22:24:04.601Z,101441.56
2023-03-19T22:26:35.822Z,101442.56
2023-03-19T22:29:07.588Z,101442.06
2023-03-19T22:31:38.304Z,101444.78
2023-03-19T22:34:07.516Z,101453.25
2023-03-19T22:36:36.591Z,101442.69
2023-03-19T22:39:06.415Z,101438.59
2023-03-19T22:41:38.144Z,101448.94
2023-03-19T22:44:10.181Z,101451.47
2023-03-19T22:46:40.657Z,101447.81
2023-03-19T22:49:16.411Z,101444.13
2023-03-19T22:51:45.927Z,101436.50
2023-03-19T22:54:15.605Z,101441.75
2023-03-19T22:56:44.899Z,101443.00
2023-03-19T22:59:13.995Z,101443.50
2023-03-19T23:01:46.858Z,101441.34
2023-03-19T23:04:20.151Z,101434.19
2023-03-19T23:06:49.646Z,101446.34
2023-03-19T23:09:21.342Z,101436.41
2023-03-19T23:11:50.485Z,101436.09
2023-03-19T23:14:29.725Z,101427.09
2023-03-19T23:17:03.191Z,101424.16
2023-03-19T23:19:34.698Z,101418.50
2023-03-19T23:22:06.669Z,101418.00
2023-03-19T23:24:35.783Z,101420.72
2023-03-19T23:27:05.298Z,101420.19
2023-03-19T23:29:39.754Z,101430.84
2023-03-19T23:32:11.755Z,101420.69
2023-03-19T23:34:56.401Z,101422.06
2023-03-19T23:37:28.625Z,101431.06
2023-03-19T23:39:57.884Z,101429.16
2023-03-19T23:42:29.663Z,101432.31
2023-03-19T23:45:03.309Z,101438.78
2023-03-19T23:47:34.443Z,101437.34
2023-03-19T23:50:03.684Z,101440.50
2023-03-19T23:52:32.714Z,101431.72
2023-03-19T23:55:01.729Z,101426.16
2023-03-19T23:57:30.914Z,101427.72
